Time;durP1;ratioP1;P1;durP2;ratioP2;P2;SDS_P1;SDS_P2;PMS_P1;PMS_P2;Temp;Humidity;BMP_temperature;BMP_pressure;BME280_temperature;BME280_humidity;BME280_pressure;Samples;Min_cycle;Max_cycle;Signal;HPM_P1;HPM_P2
2021/12/16 00:19:25;;;;;;;12.25;8.35;;;;;;;;;;10379792;28;20453;-73
2021/12/16 00:32:37;;;;;;;16.77;7.78;;;;;;;;;;10382828;28;20768;-69
2021/12/16 00:37:39;;;;;;;11.43;7.78;;;;;;;;;;10387149;28;20729;-71
2021/12/16 00:42:50;;;;;;;10.10;7.22;;;;;;;;;;10381812;28;20191;-70
2021/12/16 00:48:08;;;;;;;11.88;8.05;;;;;;;;;;10381880;28;20215;-70
2021/12/16 00:58:55;;;;;;;11.30;8.10;;;;;;;;;;10358952;28;20199;-72
2021/12/16 01:36:16;;;;;;;14.00;9.32;;;;;;;;;;10381787;28;20206;-70
2021/12/16 01:57:16;;;;;;;20.95;11.48;;;;;;;;;;10381531;28;20199;-70
2021/12/16 02:02:38;;;;;;;18.20;11.57;;;;;;;;;;10376003;28;20290;-69
2021/12/16 02:39:26;;;;;;;20.38;13.07;;;;;;;;;;10375674;28;20230;-69
2021/12/16 02:49:49;;;;;;;22.05;12.48;;;;;;;;;;10320242;28;20231;-70
2021/12/16 02:54:50;;;;;;;20.17;12.60;;;;;;;;;;10336108;28;20220;-70
2021/12/16 02:59:53;;;;;;;20.25;11.57;;;;;;;;;;10351191;28;20387;-70
2021/12/16 03:04:55;;;;;;;20.02;11.68;;;;;;;;;;10350831;28;20204;-70
2021/12/16 03:15:07;;;;;;;18.67;10.65;;;;;;;;;;10335051;28;20255;-69
2021/12/16 03:20:20;;;;;;;19.27;9.68;;;;;;;;;;10349717;28;20200;-70
2021/12/16 03:25:40;;;;;;;19.67;10.63;;;;;;;;;;10353181;28;20215;-70
2021/12/16 03:31:06;;;;;;;21.73;12.18;;;;;;;;;;10342353;28;20441;-69
2021/12/16 03:41:14;;;;;;;15.90;10.60;;;;;;;;;;10378571;28;20226;-70
2021/12/16 03:46:25;;;;;;;14.70;10.00;;;;;;;;;;10376951;28;20208;-71
2021/12/16 03:51:29;;;;;;;14.85;10.30;;;;;;;;;;10377870;28;20302;-70
2021/12/16 03:56:33;;;;;;;19.20;9.85;;;;;;;;;;10377948;28;20195;-68
2021/12/16 04:01:42;;;;;;;17.40;10.38;;;;;;;;;;10399790;28;20255;-71
2021/12/16 04:06:44;;;;;;;17.73;11.20;;;;;;;;;;10381504;28;20218;-69
2021/12/16 04:11:55;;;;;;;21.02;12.20;;;;;;;;;;10381965;28;20242;-70
2021/12/16 04:16:59;;;;;;;22.13;12.57;;;;;;;;;;10379654;28;20216;-71
2021/12/16 04:22:15;;;;;;;23.40;12.05;;;;;;;;;;10377963;28;20200;-71
2021/12/16 04:27:17;;;;;;;25.23;13.18;;;;;;;;;;10396941;28;20595;-69
2021/12/16 04:32:19;;;;;;;23.42;12.82;;;;;;;;;;10379608;28;20216;-70
2021/12/16 04:37:20;;;;;;;28.75;14.20;;;;;;;;;;10383773;28;20183;-70
2021/12/16 04:42:25;;;;;;;30.92;14.48;;;;;;;;;;10380365;28;20168;-70
2021/12/16 04:47:29;;;;;;;29.98;15.80;;;;;;;;;;10362757;28;20215;-71
2021/12/16 04:52:31;;;;;;;26.00;15.65;;;;;;;;;;10398884;28;20218;-69
2021/12/16 04:57:32;;;;;;;35.08;16.10;;;;;;;;;;10381966;28;20279;-71
2021/12/16 05:02:34;;;;;;;31.27;16.88;;;;;;;;;;10381698;28;20769;-70
2021/12/16 05:07:44;;;;;;;36.20;17.52;;;;;;;;;;10397378;28;20270;-70
2021/12/16 05:13:00;;;;;;;29.95;16.98;;;;;;;;;;10379432;28;20542;-70
2021/12/16 05:18:04;;;;;;;31.95;17.40;;;;;;;;;;10379642;28;20203;-70
2021/12/16 05:28:28;;;;;;;32.72;17.02;;;;;;;;;;10377377;28;20227;-70
2021/12/16 05:33:30;;;;;;;30.38;16.63;;;;;;;;;;10376278;28;20270;-70
2021/12/16 05:38:32;;;;;;;29.92;16.98;;;;;;;;;;10378851;28;20230;-69
2021/12/16 05:43:35;;;;;;;30.55;15.70;;;;;;;;;;10377107;28;20179;-71
2021/12/16 05:48:38;;;;;;;33.47;15.40;;;;;;;;;;10375671;28;20668;-70
2021/12/16 05:53:40;;;;;;;30.50;15.82;;;;;;;;;;10393458;28;20238;-69
2021/12/16 05:58:51;;;;;;;42.10;17.52;;;;;;;;;;10376505;28;20192;-71
2021/12/16 06:03:53;;;;;;;42.28;19.02;;;;;;;;;;10373417;28;20203;-69
2021/12/16 06:08:55;;;;;;;41.60;18.75;;;;;;;;;;10370501;28;20205;-70
2021/12/16 06:29:48;;;;;;;51.15;21.95;;;;;;;;;;10338823;28;20258;-69
2021/12/16 06:34:49;;;;;;;53.50;21.13;;;;;;;;;;10338338;28;20543;-70
2021/12/16 06:39:51;;;;;;;50.53;21.10;;;;;;;;;;10334866;28;20192;-70
2021/12/16 06:45:10;;;;;;;49.42;21.95;;;;;;;;;;10331627;28;20552;-70
2021/12/16 06:50:22;;;;;;;54.25;21.98;;;;;;;;;;10372047;28;20231;-70
2021/12/16 07:00:40;;;;;;;59.70;22.27;;;;;;;;;;10374254;28;20212;-70
2021/12/16 07:05:42;;;;;;;53.53;22.00;;;;;;;;;;10377468;28;20195;-70
2021/12/16 07:10:45;;;;;;;55.20;25.00;;;;;;;;;;10373510;28;20203;-69
2021/12/16 07:15:47;;;;;;;56.35;22.50;;;;;;;;;;10376115;28;20212;-70
2021/12/16 07:20:49;;;;;;;47.78;22.50;;;;;;;;;;10377799;28;20550;-67
2021/12/16 07:25:50;;;;;;;56.33;23.92;;;;;;;;;;10373027;28;20212;-69
2021/12/16 07:30:51;;;;;;;60.60;25.20;;;;;;;;;;10379696;28;20597;-69
2021/12/16 07:35:53;;;;;;;56.33;25.88;;;;;;;;;;10389995;28;20262;-68
2021/12/16 07:40:54;;;;;;;60.10;26.35;;;;;;;;;;10383587;28;20180;-70
2021/12/16 07:45:56;;;;;;;57.25;24.50;;;;;;;;;;10384130;28;20212;-68
2021/12/16 07:51:00;;;;;;;60.45;25.75;;;;;;;;;;10388328;28;20214;-68
2021/12/16 07:56:02;;;;;;;55.65;25.13;;;;;;;;;;10387250;28;20215;-71
2021/12/16 08:01:03;;;;;;;61.15;26.52;;;;;;;;;;10380263;28;21039;-70
2021/12/16 08:06:07;;;;;;;50.40;24.25;;;;;;;;;;10388517;28;20175;-70
2021/12/16 08:11:08;;;;;;;53.65;24.10;;;;;;;;;;10382719;28;20239;-69
2021/12/16 08:16:11;;;;;;;51.03;23.90;;;;;;;;;;10378976;28;20240;-70
2021/12/16 08:21:12;;;;;;;54.83;22.85;;;;;;;;;;10386000;28;20780;-67
2021/12/16 08:26:15;;;;;;;56.38;22.60;;;;;;;;;;10381958;28;20234;-69
2021/12/16 08:31:16;;;;;;;53.63;22.83;;;;;;;;;;10382195;28;20269;-68
2021/12/16 08:36:18;;;;;;;57.03;24.02;;;;;;;;;;10382031;28;20184;-68
2021/12/16 08:41:21;;;;;;;52.45;22.60;;;;;;;;;;10385117;28;20215;-71
2021/12/16 08:46:24;;;;;;;52.13;23.42;;;;;;;;;;10381447;28;20235;-69
2021/12/16 08:51:28;;;;;;;54.97;23.65;;;;;;;;;;10384657;28;20231;-70
2021/12/16 08:56:30;;;;;;;50.85;22.63;;;;;;;;;;10381943;28;20283;-70
2021/12/16 09:01:33;;;;;;;49.40;22.35;;;;;;;;;;10378133;28;20216;-71
2021/12/16 09:06:34;;;;;;;47.30;21.65;;;;;;;;;;10381476;28;20277;-69
2021/12/16 09:11:41;;;;;;;50.22;22.35;;;;;;;;;;10382175;28;20207;-71
2021/12/16 09:16:42;;;;;;;55.85;22.70;;;;;;;;;;10382857;28;20179;-69
2021/12/16 09:21:43;;;;;;;48.30;22.27;;;;;;;;;;10380051;28;20197;-68
2021/12/16 09:26:45;;;;;;;59.47;24.15;;;;;;;;;;10383229;28;22045;-70
2021/12/16 09:31:47;;;;;;;63.50;25.33;;;;;;;;;;10382783;28;20219;-69
2021/12/16 09:36:48;;;;;;;63.38;27.30;;;;;;;;;;10381373;28;20210;-71
2021/12/16 09:41:49;;;;;;;63.53;26.80;;;;;;;;;;10382886;28;20546;-69
2021/12/16 09:46:51;;;;;;;72.72;28.42;;;;;;;;;;10384809;28;20186;-70
2021/12/16 09:51:54;;;;;;;74.47;28.05;;;;;;;;;;10391153;28;20235;-70
2021/12/16 09:56:57;;;;;;;63.90;26.50;;;;;;;;;;10389926;28;20564;-69
2021/12/16 10:02:00;;;;;;;65.90;27.17;;;;;;;;;;10395458;28;20210;-70
2021/12/16 10:07:04;;;;;;;61.08;25.70;;;;;;;;;;10390449;28;20184;-71
2021/12/16 10:12:11;;;;;;;66.05;26.42;;;;;;;;;;10392440;28;20207;-70
2021/12/16 10:17:26;;;;;;;56.13;23.33;;;;;;;;;;10393348;28;20226;-69
2021/12/16 10:22:32;;;;;;;43.53;20.17;;;;;;;;;;10392823;28;20194;-68
2021/12/16 10:27:33;;;;;;;48.60;22.52;;;;;;;;;;10389547;28;20219;-70
2021/12/16 10:32:44;;;;;;;47.10;20.67;;;;;;;;;;10389882;28;20258;-68
2021/12/16 10:37:52;;;;;;;46.92;21.23;;;;;;;;;;10393302;28;20366;-70
2021/12/16 10:42:53;;;;;;;45.65;20.35;;;;;;;;;;10394238;28;20183;-69
2021/12/16 10:48:26;;;;;;;46.40;19.90;;;;;;;;;;10392710;28;21142;-68
2021/12/16 10:53:49;;;;;;;44.50;20.30;;;;;;;;;;10352315;28;20231;-68
2021/12/16 10:58:59;;;;;;;44.80;18.83;;;;;;;;;;10393002;28;20191;-67
2021/12/16 11:04:02;;;;;;;40.03;18.38;;;;;;;;;;10394526;28;20212;-67
2021/12/16 11:09:21;;;;;;;39.15;17.75;;;;;;;;;;10391137;28;20190;-68
2021/12/16 11:14:23;;;;;;;35.65;17.92;;;;;;;;;;10406972;28;20226;-68
2021/12/16 11:19:45;;;;;;;42.33;17.77;;;;;;;;;;10393960;28;20842;-68
2021/12/16 11:24:47;;;;;;;35.10;16.85;;;;;;;;;;10388850;28;20206;-70
2021/12/16 11:29:48;;;;;;;41.17;17.50;;;;;;;;;;10389946;28;20180;-70
2021/12/16 11:34:49;;;;;;;41.28;17.70;;;;;;;;;;10386629;28;20218;-71
2021/12/16 11:39:50;;;;;;;36.20;16.42;;;;;;;;;;10391285;28;20186;-68
2021/12/16 11:44:52;;;;;;;37.40;16.35;;;;;;;;;;10389356;28;20246;-70
2021/12/16 11:49:59;;;;;;;31.55;16.25;;;;;;;;;;10389976;28;20270;-69
2021/12/16 11:55:05;;;;;;;33.60;17.00;;;;;;;;;;10386343;28;20598;-68
2021/12/16 12:00:07;;;;;;;32.63;16.15;;;;;;;;;;10389641;28;20215;-69
2021/12/16 12:05:22;;;;;;;33.25;14.70;;;;;;;;;;10386697;28;20214;-69
2021/12/16 12:10:53;;;;;;;25.27;13.73;;;;;;;;;;10388178;28;21060;-68
2021/12/16 12:16:09;;;;;;;24.25;12.43;;;;;;;;;;10373869;28;20196;-68
2021/12/16 12:21:29;;;;;;;24.67;12.40;;;;;;;;;;10396361;28;20194;-69
2021/12/16 12:26:31;;;;;;;24.35;11.88;;;;;;;;;;10397655;28;20207;-69
2021/12/16 12:31:34;;;;;;;22.33;12.27;;;;;;;;;;10397778;28;20199;-69
2021/12/16 12:36:35;;;;;;;20.30;11.48;;;;;;;;;;10394475;28;20184;-71
2021/12/16 12:41:36;;;;;;;18.65;11.45;;;;;;;;;;10397685;28;20191;-69
2021/12/16 12:46:39;;;;;;;15.00;9.43;;;;;;;;;;10391178;28;20184;-70
2021/12/16 12:51:42;;;;;;;15.55;9.10;;;;;;;;;;10388595;28;20304;-68
2021/12/16 12:56:43;;;;;;;10.02;6.93;;;;;;;;;;10388765;28;20199;-71
2021/12/16 13:01:55;;;;;;;11.15;7.25;;;;;;;;;;10389625;28;20780;-70
2021/12/16 13:07:01;;;;;;;12.73;7.85;;;;;;;;;;10393344;28;20196;-68
2021/12/16 13:12:05;;;;;;;11.93;7.72;;;;;;;;;;10396172;28;20211;-69
2021/12/16 13:23:28;;;;;;;11.02;7.18;;;;;;;;;;10394718;28;20246;-68
2021/12/16 13:28:07;;;;;;;8.40;6.47;;;;;;;;;;10394683;28;21393;-69
2021/12/16 13:33:24;;;;;;;9.68;6.60;;;;;;;;;;10393383;28;20199;-68
2021/12/16 13:38:35;;;;;;;17.23;7.18;;;;;;;;;;10394950;28;20564;-68
2021/12/16 13:43:38;;;;;;;9.82;7.95;;;;;;;;;;10391487;28;20192;-70
2021/12/16 13:49:11;;;;;;;11.75;6.95;;;;;;;;;;10394179;28;20235;-70
2021/12/16 14:10:10;;;;;;;6.07;5.47;;;;;;;;;;10387646;28;20222;-69
2021/12/16 14:15:24;;;;;;;4.65;4.20;;;;;;;;;;10390500;28;20256;-71
2021/12/16 14:41:47;;;;;;;5.25;3.90;;;;;;;;;;10393829;28;20253;-68
2021/12/16 14:47:11;;;;;;;4.57;4.10;;;;;;;;;;10390562;28;20423;-68
2021/12/16 14:52:14;;;;;;;4.60;3.58;;;;;;;;;;10385578;28;20537;-68
2021/12/16 14:57:15;;;;;;;6.32;4.15;;;;;;;;;;10387036;28;20191;-70
2021/12/16 15:02:17;;;;;;;5.50;4.43;;;;;;;;;;10386775;28;20191;-70
2021/12/16 15:07:19;;;;;;;8.20;6.30;;;;;;;;;;10388002;28;20186;-68
2021/12/16 15:12:49;;;;;;;6.75;6.00;;;;;;;;;;10391112;28;20307;-70
2021/12/16 15:44:19;;;;;;;6.75;5.45;;;;;;;;;;10377718;28;20179;-70
2021/12/16 15:49:22;;;;;;;8.27;6.53;;;;;;;;;;10390688;28;20267;-70
2021/12/16 15:54:29;;;;;;;9.23;5.90;;;;;;;;;;10381598;28;20206;-69
2021/12/16 15:59:30;;;;;;;14.43;6.88;;;;;;;;;;10388046;28;20191;-69
2021/12/16 16:04:33;;;;;;;12.13;7.07;;;;;;;;;;10393449;28;20738;-69
2021/12/16 16:09:36;;;;;;;7.82;5.95;;;;;;;;;;10392314;28;20192;-67
2021/12/16 16:14:41;;;;;;;7.93;6.40;;;;;;;;;;10383805;28;20634;-71
2021/12/16 16:19:43;;;;;;;14.43;7.32;;;;;;;;;;10392821;28;20274;-70
2021/12/16 16:24:47;;;;;;;10.15;6.22;;;;;;;;;;10393763;28;20212;-71
2021/12/16 16:29:50;;;;;;;13.75;6.57;;;;;;;;;;10392898;28;20264;-70
2021/12/16 16:34:53;;;;;;;11.18;6.50;;;;;;;;;;10390106;28;20851;-70
2021/12/16 16:39:59;;;;;;;13.85;7.10;;;;;;;;;;10388619;28;20267;-69
2021/12/16 16:45:01;;;;;;;6.90;6.10;;;;;;;;;;10388390;28;20254;-68
2021/12/16 16:50:03;;;;;;;11.38;7.45;;;;;;;;;;10383407;28;20689;-69
2021/12/16 16:55:10;;;;;;;14.27;9.02;;;;;;;;;;10384962;28;20271;-70
2021/12/16 17:00:15;;;;;;;18.67;9.43;;;;;;;;;;10386755;28;20659;-70
2021/12/16 17:05:24;;;;;;;13.13;8.38;;;;;;;;;;10388725;28;20211;-70
2021/12/16 17:10:36;;;;;;;10.15;7.00;;;;;;;;;;10390850;28;20211;-69
2021/12/16 17:21:18;;;;;;;8.63;5.80;;;;;;;;;;10382858;28;20198;-68
2021/12/16 17:26:25;;;;;;;10.35;6.43;;;;;;;;;;10379993;28;20678;-69
2021/12/16 17:31:43;;;;;;;10.75;6.25;;;;;;;;;;10379416;28;20687;-69
2021/12/16 17:36:51;;;;;;;7.75;5.88;;;;;;;;;;10383716;28;20266;-71
2021/12/16 17:41:53;;;;;;;8.93;6.30;;;;;;;;;;10385139;28;20812;-69
2021/12/16 17:46:56;;;;;;;10.18;8.07;;;;;;;;;;10388062;28;20180;-69
2021/12/16 17:51:57;;;;;;;12.52;9.30;;;;;;;;;;10388544;28;20244;-68
2021/12/16 17:56:59;;;;;;;13.32;7.22;;;;;;;;;;10387998;28;20250;-67
2021/12/16 18:02:00;;;;;;;7.47;6.15;;;;;;;;;;10390687;28;20707;-69
2021/12/16 18:07:04;;;;;;;10.77;7.15;;;;;;;;;;10387918;28;20202;-68
2021/12/16 18:12:08;;;;;;;8.30;7.03;;;;;;;;;;10387943;28;21074;-68
2021/12/16 18:17:29;;;;;;;9.23;6.97;;;;;;;;;;10389963;28;20644;-69
2021/12/16 18:22:35;;;;;;;9.20;6.15;;;;;;;;;;10387941;28;20238;-68
2021/12/16 18:27:47;;;;;;;6.65;5.38;;;;;;;;;;10383769;28;20179;-70
2021/12/16 18:32:52;;;;;;;6.97;5.85;;;;;;;;;;10389755;28;20211;-68
2021/12/16 18:37:53;;;;;;;6.53;5.35;;;;;;;;;;10385960;28;20678;-68
2021/12/16 18:42:55;;;;;;;9.18;5.50;;;;;;;;;;10387944;28;20205;-69
2021/12/16 18:48:03;;;;;;;15.57;9.40;;;;;;;;;;10386613;28;20183;-69
2021/12/16 18:58:13;;;;;;;14.13;11.38;;;;;;;;;;10386852;28;20210;-68
2021/12/16 19:03:14;;;;;;;12.07;9.05;;;;;;;;;;10381199;28;20326;-69
2021/12/16 19:08:16;;;;;;;10.57;7.63;;;;;;;;;;10386962;28;20441;-66
2021/12/16 19:13:19;;;;;;;9.18;7.38;;;;;;;;;;10387481;28;20218;-68
2021/12/16 19:18:21;;;;;;;12.18;8.25;;;;;;;;;;10381652;28;20183;-69
2021/12/16 19:23:23;;;;;;;10.13;6.97;;;;;;;;;;10384193;28;20211;-68
2021/12/16 19:28:25;;;;;;;13.25;7.05;;;;;;;;;;10384781;28;20204;-69
2021/12/16 19:33:27;;;;;;;10.88;6.53;;;;;;;;;;10379241;28;20242;-68
2021/12/16 19:38:28;;;;;;;14.50;8.52;;;;;;;;;;10385527;28;20643;-68
2021/12/16 19:43:29;;;;;;;18.35;8.18;;;;;;;;;;10384263;28;20592;-71
2021/12/16 19:48:31;;;;;;;11.68;7.65;;;;;;;;;;10387832;28;20776;-70
2021/12/16 19:53:32;;;;;;;16.75;8.55;;;;;;;;;;10377720;28;20207;-71
2021/12/16 19:58:33;;;;;;;21.08;8.75;;;;;;;;;;10356632;28;20668;-71
2021/12/16 20:03:35;;;;;;;18.88;8.93;;;;;;;;;;10374444;28;20184;-70
2021/12/16 20:08:41;;;;;;;15.75;8.55;;;;;;;;;;10379390;28;20222;-69
2021/12/16 20:13:45;;;;;;;13.82;8.48;;;;;;;;;;10371638;28;20510;-69
2021/12/16 20:18:47;;;;;;;14.70;8.65;;;;;;;;;;10376696;28;20188;-69
2021/12/16 20:23:48;;;;;;;16.60;9.02;;;;;;;;;;10375105;28;20200;-70
2021/12/16 20:28:57;;;;;;;19.23;9.02;;;;;;;;;;10378730;28;20203;-69
2021/12/16 20:34:00;;;;;;;19.95;10.43;;;;;;;;;;10375672;28;20766;-68
2021/12/16 20:39:05;;;;;;;20.50;10.15;;;;;;;;;;10384620;28;20193;-69
2021/12/16 20:44:09;;;;;;;19.88;9.32;;;;;;;;;;10388689;28;20191;-68
2021/12/16 20:49:12;;;;;;;20.73;9.80;;;;;;;;;;10385407;28;20184;-68
2021/12/16 20:54:16;;;;;;;21.15;10.40;;;;;;;;;;10388543;28;20207;-69
2021/12/16 20:59:19;;;;;;;20.48;9.27;;;;;;;;;;10391400;28;20283;-69
2021/12/16 21:04:22;;;;;;;23.98;10.65;;;;;;;;;;10389422;28;20179;-69
2021/12/16 21:09:25;;;;;;;18.88;9.60;;;;;;;;;;10389783;28;20198;-69
2021/12/16 21:14:26;;;;;;;20.40;9.77;;;;;;;;;;10386735;28;20299;-69
2021/12/16 21:19:27;;;;;;;16.88;9.50;;;;;;;;;;10386204;28;20175;-68
2021/12/16 21:24:28;;;;;;;17.60;9.77;;;;;;;;;;10388439;28;20792;-71
2021/12/16 21:29:30;;;;;;;21.75;9.95;;;;;;;;;;10388767;28;20238;-68
2021/12/16 21:34:38;;;;;;;16.20;9.07;;;;;;;;;;10390047;28;20266;-70
2021/12/16 21:39:41;;;;;;;19.75;8.32;;;;;;;;;;10382507;28;20188;-70
2021/12/16 21:44:42;;;;;;;14.80;7.65;;;;;;;;;;10382558;28;20760;-71
2021/12/16 21:49:43;;;;;;;19.80;9.05;;;;;;;;;;10384667;28;20187;-68
2021/12/16 21:54:44;;;;;;;14.52;7.57;;;;;;;;;;10388717;28;20876;-69
2021/12/16 21:59:47;;;;;;;16.23;8.80;;;;;;;;;;10398276;28;21020;-71
2021/12/16 22:04:48;;;;;;;20.38;9.32;;;;;;;;;;10386842;28;20270;-68
2021/12/16 22:09:49;;;;;;;13.45;8.25;;;;;;;;;;10390621;28;20187;-70
2021/12/16 22:14:51;;;;;;;15.57;8.77;;;;;;;;;;10385437;28;20262;-68
2021/12/16 22:19:52;;;;;;;13.82;8.00;;;;;;;;;;10390874;28;20188;-69
2021/12/16 22:24:53;;;;;;;14.90;8.27;;;;;;;;;;10388663;28;20248;-70
2021/12/16 22:29:55;;;;;;;18.55;8.95;;;;;;;;;;10387981;28;20187;-70
2021/12/16 22:34:56;;;;;;;20.35;8.98;;;;;;;;;;10389326;28;20207;-70
2021/12/16 22:39:57;;;;;;;25.05;10.60;;;;;;;;;;10388803;28;20191;-70
2021/12/16 22:44:58;;;;;;;21.35;9.98;;;;;;;;;;10390983;28;20208;-69
2021/12/16 22:49:59;;;;;;;26.75;11.10;;;;;;;;;;10385544;28;20200;-70
2021/12/16 22:55:00;;;;;;;25.10;12.30;;;;;;;;;;10393460;28;20211;-70
2021/12/16 23:00:01;;;;;;;24.77;10.68;;;;;;;;;;10389143;28;20201;-71
2021/12/16 23:05:03;;;;;;;25.85;11.63;;;;;;;;;;10383254;28;20180;-70
2021/12/16 23:10:10;;;;;;;28.42;11.50;;;;;;;;;;10378781;28;20731;-67
2021/12/16 23:16:04;;;;;;;27.67;12.07;;;;;;;;;;10381972;28;20182;-70
2021/12/16 23:25:56;;;;;;;31.63;11.90;;;;;;;;;;10382556;28;20237;-69
2021/12/16 23:30:57;;;;;;;27.17;11.73;;;;;;;;;;10389515;28;20233;-70
2021/12/16 23:35:58;;;;;;;21.80;10.05;;;;;;;;;;10385367;28;20668;-69
2021/12/16 23:41:09;;;;;;;20.48;10.20;;;;;;;;;;10387340;28;20183;-69
2021/12/16 23:46:34;;;;;;;20.27;8.52;;;;;;;;;;10387186;28;20663;-69
2021/12/16 23:56:56;;;;;;;16.40;9.23;;;;;;;;;;10334698;28;1417619;-69
